South Prairie, Washington
Current Conditions -  °F | °C
As of 2:58 PM on Wednesday 26 Nov 2014 (Local Time) from KTCM Reporting Station
Overcast Overcast  
Wind Chill: 58°   Ceiling: 3700
Heat Index: 58°   Visibility: 10mi
Dew Point: 55°   Wind: 5mph
Humidity: 87%   Direction: 230°SW
Pressure: 30.05"   Gusts: NA
Location:  47.14°N, 122.1°W
Report Text: KTCM 262258Z AUTO 23004KT 10SM OVC037 15/13 A3005 RMK AO2 SLP180 T01470126 $
Loading
Personal Weather Stations






























Interactive Weather Map New forecast layout! Learn more

10-Day Weather Forecast

Advertisements
Track Severe Weather on mobile